Dunkirk, OH (45836)

11:23 AM EDT on June 22, 2017 (GMT -0400)
Biggs Engineering building roof | | Change Station

Elev 956 ft 40.77 °N, 83.83 °W | Updated 1 second ago

Partly Cloudy
Partly Cloudy
79.6 °F
Feels Like 83 °F
N
6.0
Wind Variable Wind from WSW
Gusts 12.0 mph

Today
High -- | Low -- °F
--% Chance of Precip.
Yesterday
High -- | Low -- °F
Precip. -- in
Pressure 29.94 in
Visibility 10.0 miles
Clouds Mostly Cloudy 10000 ft
Heat Index 83 °F
Dew Point 71 °F
Humidity 75%
Rainfall 0.00 in
Snow Depth Not available.
6:03 AM 9:09 PM
Waning Crescent, 3% visible
METAR KFDY 221453Z AUTO 23010KT 10SM BKN100 26/19 A2996 RMK AO2 RAB11E20 SLP136 P0000 60000 T02610189 50005 TSNO
Pressure 29.94 in
Visibility 10.0 miles
Clouds Mostly Cloudy 10000 ft
Heat Index 83 °F
Dew Point 71 °F
Humidity 75%
Rainfall 0.00 in
Snow Depth Not available.
6:03 AM 9:09 PM
Waning Crescent, 3% visible
METAR KFDY 221453Z AUTO 23010KT 10SM BKN100 26/19 A2996 RMK AO2 RAB11E20 SLP136 P0000 60000 T02610189 50005 TSNO

Get Severe Weather Alerts

Thanks for signing up!

Be on the lookout for a verification email in your inbox.

You'll start receiving the daily forecast at 6 AM.

×

10-Day Weather Forecast

Almanac

Astronomy

Jun. 22, 2017 Rise Set
Actual Time
Civil Twilight
Nautical Twilight
Astronomical Twilight
Moon
Length of Visible Light
Length of Day
Tomorrow will be .
, % of the Moon is Illuminated

Today's Extremes

State Highs State Lows

Community

WunderPhotos

Category 6

Welcome to Category 6. This is the collective home for Weather Underground's featured writeups by Dr. Jeff Masters (right), Bob Henson (left), Chris Burt, and other regular contributors.

Nearby

Air Quality

  Air Quality AQ Index Pollutant
Not available.

Snow Depth

Station Depth Elevation

Earthquake Activity

City Distance Mag. Time & Date
Minimum magnitude displayed is 2.5.

Coastal Water Temperatures

Place Temperature

Stations

Nearby Weather Stations

Station Location Temp. Windchill Dew Point Humidity Wind Precip. Elev Updated Type
                   

Watches & Warnings

There are currently no watches in effect.